sensor_id;sensor_type;location;lat;lon;timestamp;temperature;humidity
68385;DHT22;55336;43.062;25.626;2024-02-15T00:00:10;5.70;99.90
68385;DHT22;55336;43.062;25.626;2024-02-15T00:02:36;5.70;99.90
68385;DHT22;55336;43.062;25.626;2024-02-15T00:05:02;5.70;99.90
68385;DHT22;55336;43.062;25.626;2024-02-15T00:07:28;5.70;99.90
68385;DHT22;55336;43.062;25.626;2024-02-15T00:09:54;5.70;99.90
68385;DHT22;55336;43.062;25.626;2024-02-15T00:12:20;5.70;99.90
68385;DHT22;55336;43.062;25.626;2024-02-15T00:14:46;5.70;99.90
68385;DHT22;55336;43.062;25.626;2024-02-15T00:17:12;5.70;99.90
68385;DHT22;55336;43.062;25.626;2024-02-15T00:19:38;5.70;99.90
68385;DHT22;55336;43.062;25.626;2024-02-15T00:22:07;5.70;99.90
68385;DHT22;55336;43.062;25.626;2024-02-15T00:24:33;5.60;99.90
68385;DHT22;55336;43.062;25.626;2024-02-15T00:26:59;5.60;99.90
68385;DHT22;55336;43.062;25.626;2024-02-15T00:29:25;5.50;99.90
68385;DHT22;55336;43.062;25.626;2024-02-15T00:31:54;5.50;99.90
68385;DHT22;55336;43.062;25.626;2024-02-15T00:34:20;5.60;99.90
68385;DHT22;55336;43.062;25.626;2024-02-15T00:36:46;5.60;99.90
68385;DHT22;55336;43.062;25.626;2024-02-15T00:39:12;5.60;99.90
68385;DHT22;55336;43.062;25.626;2024-02-15T00:41:43;5.60;99.90
68385;DHT22;55336;43.062;25.626;2024-02-15T00:44:11;5.60;99.90
68385;DHT22;55336;43.062;25.626;2024-02-15T00:46:37;5.60;99.90
68385;DHT22;55336;43.062;25.626;2024-02-15T00:49:04;5.60;99.90
68385;DHT22;55336;43.062;25.626;2024-02-15T00:51:36;5.50;99.90
68385;DHT22;55336;43.062;25.626;2024-02-15T00:54:05;5.50;99.90
68385;DHT22;55336;43.062;25.626;2024-02-15T00:56:31;5.50;99.90
68385;DHT22;55336;43.062;25.626;2024-02-15T00:59:01;5.50;99.90
68385;DHT22;55336;43.062;25.626;2024-02-15T01:01:27;5.50;99.90
68385;DHT22;55336;43.062;25.626;2024-02-15T01:03:53;5.50;99.90
68385;DHT22;55336;43.062;25.626;2024-02-15T01:06:18;5.50;99.90
68385;DHT22;55336;43.062;25.626;2024-02-15T01:08:44;5.50;99.90
68385;DHT22;55336;43.062;25.626;2024-02-15T01:11:10;5.50;99.90
68385;DHT22;55336;43.062;25.626;2024-02-15T01:13:36;5.50;99.90
68385;DHT22;55336;43.062;25.626;2024-02-15T01:16:03;5.50;99.90
68385;DHT22;55336;43.062;25.626;2024-02-15T01:18:29;5.40;99.90
68385;DHT22;55336;43.062;25.626;2024-02-15T01:20:57;5.40;99.90
68385;DHT22;55336;43.062;25.626;2024-02-15T01:23:24;5.40;99.90
68385;DHT22;55336;43.062;25.626;2024-02-15T01:25:51;5.30;99.90
68385;DHT22;55336;43.062;25.626;2024-02-15T01:28:17;5.30;99.90
68385;DHT22;55336;43.062;25.626;2024-02-15T01:30:43;5.30;99.90
68385;DHT22;55336;43.062;25.626;2024-02-15T01:33:11;5.30;99.90
68385;DHT22;55336;43.062;25.626;2024-02-15T01:35:37;5.20;99.90
68385;DHT22;55336;43.062;25.626;2024-02-15T01:38:04;5.10;99.90
68385;DHT22;55336;43.062;25.626;2024-02-15T01:40:31;5.20;99.90
68385;DHT22;55336;43.062;25.626;2024-02-15T01:42:57;5.20;99.90
68385;DHT22;55336;43.062;25.626;2024-02-15T01:45:24;5.20;99.90
68385;DHT22;55336;43.062;25.626;2024-02-15T01:47:52;5.20;99.90
68385;DHT22;55336;43.062;25.626;2024-02-15T01:50:18;5.20;99.90
68385;DHT22;55336;43.062;25.626;2024-02-15T01:52:45;5.20;99.90
68385;DHT22;55336;43.062;25.626;2024-02-15T01:55:14;5.10;99.90
68385;DHT22;55336;43.062;25.626;2024-02-15T01:57:44;5.10;99.90
68385;DHT22;55336;43.062;25.626;2024-02-15T02:00:11;5.10;99.90
68385;DHT22;55336;43.062;25.626;2024-02-15T02:02:41;5.00;99.90
68385;DHT22;55336;43.062;25.626;2024-02-15T02:05:07;5.10;99.90
68385;DHT22;55336;43.062;25.626;2024-02-15T02:07:34;5.00;99.90
68385;DHT22;55336;43.062;25.626;2024-02-15T02:10:00;5.00;99.90
68385;DHT22;55336;43.062;25.626;2024-02-15T02:12:26;5.00;99.90
68385;DHT22;55336;43.062;25.626;2024-02-15T02:14:56;5.00;99.90
68385;DHT22;55336;43.062;25.626;2024-02-15T02:17:22;5.00;99.90
68385;DHT22;55336;43.062;25.626;2024-02-15T02:19:49;5.00;99.90
68385;DHT22;55336;43.062;25.626;2024-02-15T02:22:16;5.00;99.90
68385;DHT22;55336;43.062;25.626;2024-02-15T02:25:06;5.00;99.90
68385;DHT22;55336;43.062;25.626;2024-02-15T02:27:35;4.90;99.90
68385;DHT22;55336;43.062;25.626;2024-02-15T02:30:11;4.90;99.90
68385;DHT22;55336;43.062;25.626;2024-02-15T02:32:41;4.90;99.90
68385;DHT22;55336;43.062;25.626;2024-02-15T02:35:07;4.90;99.90
68385;DHT22;55336;43.062;25.626;2024-02-15T02:37:33;4.90;99.90
68385;DHT22;55336;43.062;25.626;2024-02-15T02:40:06;4.90;99.90
68385;DHT22;55336;43.062;25.626;2024-02-15T02:42:36;4.80;99.90
68385;DHT22;55336;43.062;25.626;2024-02-15T02:45:02;4.80;99.90
68385;DHT22;55336;43.062;25.626;2024-02-15T02:47:28;4.90;99.90
68385;DHT22;55336;43.062;25.626;2024-02-15T02:49:53;4.90;99.90
68385;DHT22;55336;43.062;25.626;2024-02-15T02:52:19;4.80;99.90
68385;DHT22;55336;43.062;25.626;2024-02-15T02:54:45;4.80;99.90
68385;DHT22;55336;43.062;25.626;2024-02-15T02:57:11;4.80;99.90
68385;DHT22;55336;43.062;25.626;2024-02-15T02:59:37;4.90;99.90
68385;DHT22;55336;43.062;25.626;2024-02-15T03:02:05;4.80;99.90
68385;DHT22;55336;43.062;25.626;2024-02-15T03:04:33;4.90;99.90
68385;DHT22;55336;43.062;25.626;2024-02-15T03:06:59;4.80;99.90
68385;DHT22;55336;43.062;25.626;2024-02-15T03:09:25;4.80;99.90
68385;DHT22;55336;43.062;25.626;2024-02-15T03:11:55;4.80;99.90
68385;DHT22;55336;43.062;25.626;2024-02-15T03:14:22;4.80;99.90
68385;DHT22;55336;43.062;25.626;2024-02-15T03:16:48;4.70;99.90
68385;DHT22;55336;43.062;25.626;2024-02-15T03:19:14;4.80;99.90
68385;DHT22;55336;43.062;25.626;2024-02-15T03:21:40;4.80;99.90
68385;DHT22;55336;43.062;25.626;2024-02-15T03:24:12;4.80;99.90
68385;DHT22;55336;43.062;25.626;2024-02-15T03:26:38;4.80;99.90
68385;DHT22;55336;43.062;25.626;2024-02-15T03:29:06;4.80;99.90
68385;DHT22;55336;43.062;25.626;2024-02-15T03:31:34;4.80;99.90
68385;DHT22;55336;43.062;25.626;2024-02-15T03:34:05;4.80;99.90
68385;DHT22;55336;43.062;25.626;2024-02-15T03:36:31;4.70;99.90
68385;DHT22;55336;43.062;25.626;2024-02-15T03:38:58;4.80;99.90
68385;DHT22;55336;43.062;25.626;2024-02-15T03:41:27;4.70;99.90
68385;DHT22;55336;43.062;25.626;2024-02-15T03:43:56;4.70;99.90
68385;DHT22;55336;43.062;25.626;2024-02-15T03:46:26;4.70;99.90
68385;DHT22;55336;43.062;25.626;2024-02-15T03:48:53;4.70;99.90
68385;DHT22;55336;43.062;25.626;2024-02-15T03:51:21;4.80;99.90
68385;DHT22;55336;43.062;25.626;2024-02-15T03:53:50;4.80;99.90
68385;DHT22;55336;43.062;25.626;2024-02-15T03:56:18;4.70;99.90
68385;DHT22;55336;43.062;25.626;2024-02-15T03:58:48;4.70;99.90
68385;DHT22;55336;43.062;25.626;2024-02-15T04:01:16;4.70;99.90
68385;DHT22;55336;43.062;25.626;2024-02-15T04:03:42;4.70;99.90
68385;DHT22;55336;43.062;25.626;2024-02-15T04:06:13;4.70;99.90
68385;DHT22;55336;43.062;25.626;2024-02-15T04:08:39;5.30;99.90
68385;DHT22;55336;43.062;25.626;2024-02-15T04:11:05;4.70;99.90
68385;DHT22;55336;43.062;25.626;2024-02-15T04:13:33;4.70;99.90
68385;DHT22;55336;43.062;25.626;2024-02-15T04:15:59;4.70;99.90
68385;DHT22;55336;43.062;25.626;2024-02-15T04:18:25;4.70;99.90
68385;DHT22;55336;43.062;25.626;2024-02-15T04:20:51;4.70;99.90
68385;DHT22;55336;43.062;25.626;2024-02-15T04:23:18;4.70;99.90
68385;DHT22;55336;43.062;25.626;2024-02-15T04:25:44;4.70;99.90
68385;DHT22;55336;43.062;25.626;2024-02-15T04:28:16;4.70;99.90
68385;DHT22;55336;43.062;25.626;2024-02-15T04:30:42;4.70;99.90
68385;DHT22;55336;43.062;25.626;2024-02-15T04:33:08;4.70;99.90
68385;DHT22;55336;43.062;25.626;2024-02-15T04:35:34;4.70;99.90
68385;DHT22;55336;43.062;25.626;2024-02-15T04:38:01;4.70;99.90
68385;DHT22;55336;43.062;25.626;2024-02-15T04:40:27;4.70;99.90
68385;DHT22;55336;43.062;25.626;2024-02-15T04:42:52;4.70;99.90
68385;DHT22;55336;43.062;25.626;2024-02-15T04:45:19;4.70;99.90
68385;DHT22;55336;43.062;25.626;2024-02-15T04:47:48;4.60;99.90
68385;DHT22;55336;43.062;25.626;2024-02-15T04:50:17;5.00;99.90
68385;DHT22;55336;43.062;25.626;2024-02-15T04:52:44;4.70;99.90
68385;DHT22;55336;43.062;25.626;2024-02-15T04:55:11;4.60;99.90
68385;DHT22;55336;43.062;25.626;2024-02-15T04:57:38;4.60;99.90
68385;DHT22;55336;43.062;25.626;2024-02-15T05:00:06;4.60;99.90
68385;DHT22;55336;43.062;25.626;2024-02-15T05:02:40;4.60;99.90
68385;DHT22;55336;43.062;25.626;2024-02-15T05:05:10;4.60;99.90
68385;DHT22;55336;43.062;25.626;2024-02-15T05:07:35;4.60;99.90
68385;DHT22;55336;43.062;25.626;2024-02-15T05:10:06;4.60;99.90
68385;DHT22;55336;43.062;25.626;2024-02-15T05:12:33;4.60;99.90
68385;DHT22;55336;43.062;25.626;2024-02-15T05:14:59;4.60;99.90
68385;DHT22;55336;43.062;25.626;2024-02-15T05:17:26;4.60;99.90
68385;DHT22;55336;43.062;25.626;2024-02-15T05:19:54;4.60;99.90
68385;DHT22;55336;43.062;25.626;2024-02-15T05:22:23;4.70;99.90
68385;DHT22;55336;43.062;25.626;2024-02-15T05:24:48;4.60;99.90
68385;DHT22;55336;43.062;25.626;2024-02-15T05:27:15;4.60;99.90
68385;DHT22;55336;43.062;25.626;2024-02-15T05:29:41;4.60;99.90
68385;DHT22;55336;43.062;25.626;2024-02-15T05:32:08;4.60;99.90
68385;DHT22;55336;43.062;25.626;2024-02-15T05:34:35;4.60;99.90
68385;DHT22;55336;43.062;25.626;2024-02-15T05:37:05;4.60;99.90
68385;DHT22;55336;43.062;25.626;2024-02-15T05:39:32;4.60;99.90
68385;DHT22;55336;43.062;25.626;2024-02-15T05:41:58;4.60;99.90
68385;DHT22;55336;43.062;25.626;2024-02-15T05:44:26;4.70;99.90
68385;DHT22;55336;43.062;25.626;2024-02-15T05:46:52;4.70;99.90
68385;DHT22;55336;43.062;25.626;2024-02-15T05:49:18;4.70;99.90
68385;DHT22;55336;43.062;25.626;2024-02-15T05:51:45;4.70;99.90
68385;DHT22;55336;43.062;25.626;2024-02-15T05:54:13;4.70;99.90
68385;DHT22;55336;43.062;25.626;2024-02-15T05:56:39;4.70;99.90
68385;DHT22;55336;43.062;25.626;2024-02-15T05:59:05;4.80;99.90
68385;DHT22;55336;43.062;25.626;2024-02-15T06:01:37;4.80;99.90
68385;DHT22;55336;43.062;25.626;2024-02-15T06:04:04;4.90;99.90
68385;DHT22;55336;43.062;25.626;2024-02-15T06:06:34;4.90;99.90
68385;DHT22;55336;43.062;25.626;2024-02-15T06:09:00;4.90;99.90
68385;DHT22;55336;43.062;25.626;2024-02-15T06:11:27;5.00;99.90
68385;DHT22;55336;43.062;25.626;2024-02-15T06:13:52;5.00;99.90
68385;DHT22;55336;43.062;25.626;2024-02-15T06:16:18;5.00;99.90
68385;DHT22;55336;43.062;25.626;2024-02-15T06:18:44;5.10;99.90
68385;DHT22;55336;43.062;25.626;2024-02-15T06:21:13;5.10;99.90
68385;DHT22;55336;43.062;25.626;2024-02-15T06:23:39;5.10;99.90
68385;DHT22;55336;43.062;25.626;2024-02-15T06:26:05;5.00;99.90
68385;DHT22;55336;43.062;25.626;2024-02-15T06:28:30;5.10;99.90
68385;DHT22;55336;43.062;25.626;2024-02-15T06:31:15;5.10;99.90
68385;DHT22;55336;43.062;25.626;2024-02-15T06:33:59;5.10;99.90
68385;DHT22;55336;43.062;25.626;2024-02-15T06:36:52;5.20;99.90
68385;DHT22;55336;43.062;25.626;2024-02-15T06:39:37;5.30;99.90
68385;DHT22;55336;43.062;25.626;2024-02-15T06:42:12;5.40;99.90
68385;DHT22;55336;43.062;25.626;2024-02-15T06:44:40;5.50;99.90
68385;DHT22;55336;43.062;25.626;2024-02-15T06:47:06;5.50;99.90
68385;DHT22;55336;43.062;25.626;2024-02-15T06:49:32;5.60;99.90
68385;DHT22;55336;43.062;25.626;2024-02-15T06:51:59;5.70;99.90
68385;DHT22;55336;43.062;25.626;2024-02-15T06:54:28;5.70;99.90
68385;DHT22;55336;43.062;25.626;2024-02-15T06:56:53;5.70;99.90
68385;DHT22;55336;43.062;25.626;2024-02-15T06:59:20;5.80;99.90
68385;DHT22;55336;43.062;25.626;2024-02-15T07:01:51;5.90;99.90
68385;DHT22;55336;43.062;25.626;2024-02-15T07:04:18;5.90;99.90
68385;DHT22;55336;43.062;25.626;2024-02-15T07:06:44;5.90;99.90
68385;DHT22;55336;43.062;25.626;2024-02-15T07:09:13;5.90;99.90
68385;DHT22;55336;43.062;25.626;2024-02-15T07:11:41;6.00;99.90
68385;DHT22;55336;43.062;25.626;2024-02-15T07:14:07;6.10;99.90
68385;DHT22;55336;43.062;25.626;2024-02-15T07:16:34;6.20;99.90
68385;DHT22;55336;43.062;25.626;2024-02-15T07:19:00;6.30;99.90
68385;DHT22;55336;43.062;25.626;2024-02-15T07:21:34;6.40;99.90
68385;DHT22;55336;43.062;25.626;2024-02-15T07:24:01;6.50;99.90
68385;DHT22;55336;43.062;25.626;2024-02-15T07:26:27;6.60;99.90
68385;DHT22;55336;43.062;25.626;2024-02-15T07:28:56;6.60;99.90
68385;DHT22;55336;43.062;25.626;2024-02-15T07:31:23;6.60;99.90
68385;DHT22;55336;43.062;25.626;2024-02-15T07:33:51;6.70;99.90
68385;DHT22;55336;43.062;25.626;2024-02-15T07:36:20;6.70;99.90
68385;DHT22;55336;43.062;25.626;2024-02-15T07:38:50;6.70;99.90
68385;DHT22;55336;43.062;25.626;2024-02-15T07:41:21;6.90;99.90
68385;DHT22;55336;43.062;25.626;2024-02-15T07:43:48;6.90;99.90
68385;DHT22;55336;43.062;25.626;2024-02-15T07:46:15;6.90;99.90
68385;DHT22;55336;43.062;25.626;2024-02-15T07:48:43;6.90;99.90
68385;DHT22;55336;43.062;25.626;2024-02-15T07:51:18;7.10;99.90
68385;DHT22;55336;43.062;25.626;2024-02-15T07:53:44;7.30;99.90
68385;DHT22;55336;43.062;25.626;2024-02-15T07:56:10;7.70;99.90
68385;DHT22;55336;43.062;25.626;2024-02-15T07:58:43;8.30;99.90
68385;DHT22;55336;43.062;25.626;2024-02-15T08:01:13;8.60;99.90
68385;DHT22;55336;43.062;25.626;2024-02-15T08:03:40;8.50;99.90
68385;DHT22;55336;43.062;25.626;2024-02-15T08:06:11;8.70;99.90
68385;DHT22;55336;43.062;25.626;2024-02-15T08:08:48;8.70;99.90
68385;DHT22;55336;43.062;25.626;2024-02-15T08:11:14;8.60;99.90
68385;DHT22;55336;43.062;25.626;2024-02-15T08:13:47;8.60;99.90
68385;DHT22;55336;43.062;25.626;2024-02-15T08:16:22;9.10;99.90
68385;DHT22;55336;43.062;25.626;2024-02-15T08:18:49;9.00;99.90
68385;DHT22;55336;43.062;25.626;2024-02-15T08:21:18;9.40;99.90
68385;DHT22;55336;43.062;25.626;2024-02-15T08:23:44;9.10;99.90
68385;DHT22;55336;43.062;25.626;2024-02-15T08:26:10;9.40;99.90
68385;DHT22;55336;43.062;25.626;2024-02-15T08:28:39;9.60;99.90
68385;DHT22;55336;43.062;25.626;2024-02-15T08:31:05;9.30;99.90
68385;DHT22;55336;43.062;25.626;2024-02-15T08:33:33;8.90;99.90
68385;DHT22;55336;43.062;25.626;2024-02-15T08:36:01;8.80;99.90
68385;DHT22;55336;43.062;25.626;2024-02-15T08:38:32;9.00;99.90
68385;DHT22;55336;43.062;25.626;2024-02-15T08:40:59;9.40;99.90
68385;DHT22;55336;43.062;25.626;2024-02-15T08:43:25;9.60;99.90
68385;DHT22;55336;43.062;25.626;2024-02-15T08:45:51;9.30;99.90
68385;DHT22;55336;43.062;25.626;2024-02-15T08:48:16;9.70;99.90
68385;DHT22;55336;43.062;25.626;2024-02-15T08:50:42;9.70;99.90
68385;DHT22;55336;43.062;25.626;2024-02-15T08:53:11;10.00;99.90
68385;DHT22;55336;43.062;25.626;2024-02-15T08:55:36;9.90;99.90
68385;DHT22;55336;43.062;25.626;2024-02-15T08:58:03;10.00;99.90
68385;DHT22;55336;43.062;25.626;2024-02-15T09:00:29;9.90;99.90
68385;DHT22;55336;43.062;25.626;2024-02-15T09:02:55;10.00;99.90
68385;DHT22;55336;43.062;25.626;2024-02-15T09:05:22;10.20;99.90
68385;DHT22;55336;43.062;25.626;2024-02-15T09:07:48;10.30;99.90
68385;DHT22;55336;43.062;25.626;2024-02-15T09:10:15;10.30;99.90
68385;DHT22;55336;43.062;25.626;2024-02-15T09:12:45;10.20;99.90
68385;DHT22;55336;43.062;25.626;2024-02-15T09:15:15;10.80;99.90
68385;DHT22;55336;43.062;25.626;2024-02-15T09:17:41;11.40;99.90
68385;DHT22;55336;43.062;25.626;2024-02-15T09:20:10;11.20;99.90
68385;DHT22;55336;43.062;25.626;2024-02-15T09:22:51;11.20;99.90
68385;DHT22;55336;43.062;25.626;2024-02-15T09:25:19;11.00;99.90
68385;DHT22;55336;43.062;25.626;2024-02-15T09:27:49;10.60;99.90
68385;DHT22;55336;43.062;25.626;2024-02-15T09:30:16;10.40;99.90
68385;DHT22;55336;43.062;25.626;2024-02-15T09:32:42;10.10;99.90
68385;DHT22;55336;43.062;25.626;2024-02-15T09:35:09;10.10;99.90
68385;DHT22;55336;43.062;25.626;2024-02-15T09:37:47;10.20;99.90
68385;DHT22;55336;43.062;25.626;2024-02-15T09:40:17;10.40;99.90
68385;DHT22;55336;43.062;25.626;2024-02-15T09:42:44;10.50;99.90
68385;DHT22;55336;43.062;25.626;2024-02-15T09:45:12;10.20;99.90
68385;DHT22;55336;43.062;25.626;2024-02-15T09:47:38;10.80;99.90
68385;DHT22;55336;43.062;25.626;2024-02-15T09:50:08;10.80;99.90
68385;DHT22;55336;43.062;25.626;2024-02-15T09:52:38;10.80;99.90
68385;DHT22;55336;43.062;25.626;2024-02-15T09:55:07;11.00;99.90
68385;DHT22;55336;43.062;25.626;2024-02-15T09:57:39;11.20;99.90
68385;DHT22;55336;43.062;25.626;2024-02-15T10:00:07;10.80;99.90
68385;DHT22;55336;43.062;25.626;2024-02-15T10:02:35;10.70;99.90
68385;DHT22;55336;43.062;25.626;2024-02-15T10:05:04;10.30;99.90
68385;DHT22;55336;43.062;25.626;2024-02-15T10:07:29;10.60;99.90
68385;DHT22;55336;43.062;25.626;2024-02-15T10:09:56;10.60;99.90
68385;DHT22;55336;43.062;25.626;2024-02-15T10:12:22;10.30;99.90
68385;DHT22;55336;43.062;25.626;2024-02-15T10:14:49;10.70;99.90
68385;DHT22;55336;43.062;25.626;2024-02-15T10:17:17;10.50;99.90
68385;DHT22;55336;43.062;25.626;2024-02-15T10:19:43;11.00;99.90
68385;DHT22;55336;43.062;25.626;2024-02-15T10:22:10;10.90;99.90
68385;DHT22;55336;43.062;25.626;2024-02-15T10:24:37;10.90;99.90
68385;DHT22;55336;43.062;25.626;2024-02-15T10:27:05;11.00;99.90
68385;DHT22;55336;43.062;25.626;2024-02-15T10:29:36;10.80;99.90
68385;DHT22;55336;43.062;25.626;2024-02-15T10:32:03;10.70;99.90
68385;DHT22;55336;43.062;25.626;2024-02-15T10:34:31;10.70;99.90
68385;DHT22;55336;43.062;25.626;2024-02-15T10:37:16;10.40;99.90
68385;DHT22;55336;43.062;25.626;2024-02-15T10:39:42;10.90;99.90
68385;DHT22;55336;43.062;25.626;2024-02-15T10:42:08;10.90;99.90
68385;DHT22;55336;43.062;25.626;2024-02-15T10:44:37;11.10;99.90
68385;DHT22;55336;43.062;25.626;2024-02-15T10:47:07;10.50;99.90
68385;DHT22;55336;43.062;25.626;2024-02-15T10:49:34;11.00;99.90
68385;DHT22;55336;43.062;25.626;2024-02-15T10:52:04;11.10;99.90
68385;DHT22;55336;43.062;25.626;2024-02-15T10:54:43;11.00;99.90
68385;DHT22;55336;43.062;25.626;2024-02-15T10:57:12;11.10;99.90
68385;DHT22;55336;43.062;25.626;2024-02-15T10:59:55;11.40;99.90
68385;DHT22;55336;43.062;25.626;2024-02-15T11:02:37;11.20;99.90
68385;DHT22;55336;43.062;25.626;2024-02-15T11:05:07;11.50;99.90
68385;DHT22;55336;43.062;25.626;2024-02-15T11:07:37;11.70;99.90
68385;DHT22;55336;43.062;25.626;2024-02-15T11:10:05;11.60;99.90
68385;DHT22;55336;43.062;25.626;2024-02-15T11:12:37;11.80;99.90
68385;DHT22;55336;43.062;25.626;2024-02-15T11:15:03;11.80;99.90
68385;DHT22;55336;43.062;25.626;2024-02-15T11:17:50;11.70;99.90
68385;DHT22;55336;43.062;25.626;2024-02-15T11:20:46;11.70;99.90
68385;DHT22;55336;43.062;25.626;2024-02-15T11:23:23;11.90;99.90
68385;DHT22;55336;43.062;25.626;2024-02-15T11:25:51;11.70;99.90
68385;DHT22;55336;43.062;25.626;2024-02-15T11:30:52;11.70;99.90
68385;DHT22;55336;43.062;25.626;2024-02-15T11:33:35;11.30;99.90
68385;DHT22;55336;43.062;25.626;2024-02-15T11:36:08;10.90;99.90
68385;DHT22;55336;43.062;25.626;2024-02-15T11:38:35;11.10;99.90
68385;DHT22;55336;43.062;25.626;2024-02-15T11:41:05;11.10;99.90
68385;DHT22;55336;43.062;25.626;2024-02-15T11:46:25;10.60;99.90
68385;DHT22;55336;43.062;25.626;2024-02-15T11:48:52;10.80;99.90
68385;DHT22;55336;43.062;25.626;2024-02-15T11:51:29;10.80;99.90
68385;DHT22;55336;43.062;25.626;2024-02-15T11:54:01;10.80;99.90
68385;DHT22;55336;43.062;25.626;2024-02-15T11:59:09;10.90;99.90
68385;DHT22;55336;43.062;25.626;2024-02-15T12:01:44;10.80;99.90
68385;DHT22;55336;43.062;25.626;2024-02-15T12:04:32;10.90;99.90
68385;DHT22;55336;43.062;25.626;2024-02-15T12:07:16;10.90;99.90
68385;DHT22;55336;43.062;25.626;2024-02-15T12:10:01;11.00;99.90
68385;DHT22;55336;43.062;25.626;2024-02-15T12:12:52;11.00;99.90
68385;DHT22;55336;43.062;25.626;2024-02-15T12:15:36;11.10;99.90
68385;DHT22;55336;43.062;25.626;2024-02-15T12:18:21;11.10;99.90
68385;DHT22;55336;43.062;25.626;2024-02-15T12:21:09;11.30;99.90
68385;DHT22;55336;43.062;25.626;2024-02-15T12:23:38;11.50;99.90
68385;DHT22;55336;43.062;25.626;2024-02-15T12:26:06;10.90;99.90
68385;DHT22;55336;43.062;25.626;2024-02-15T12:28:33;11.20;99.90
68385;DHT22;55336;43.062;25.626;2024-02-15T12:31:01;11.20;99.90
68385;DHT22;55336;43.062;25.626;2024-02-15T12:33:27;11.30;99.90
68385;DHT22;55336;43.062;25.626;2024-02-15T12:36:14;11.50;99.90
68385;DHT22;55336;43.062;25.626;2024-02-15T12:38:39;11.60;99.90
68385;DHT22;55336;43.062;25.626;2024-02-15T12:41:20;11.60;99.90
68385;DHT22;55336;43.062;25.626;2024-02-15T12:43:46;11.60;99.90
68385;DHT22;55336;43.062;25.626;2024-02-15T12:46:12;11.40;99.90
68385;DHT22;55336;43.062;25.626;2024-02-15T12:48:38;11.40;99.90
68385;DHT22;55336;43.062;25.626;2024-02-15T12:51:16;11.50;99.90
68385;DHT22;55336;43.062;25.626;2024-02-15T12:53:42;11.30;99.90
68385;DHT22;55336;43.062;25.626;2024-02-15T12:56:08;11.20;99.90
68385;DHT22;55336;43.062;25.626;2024-02-15T12:58:39;11.40;99.90
68385;DHT22;55336;43.062;25.626;2024-02-15T13:01:06;11.40;99.90
68385;DHT22;55336;43.062;25.626;2024-02-15T13:03:31;11.50;99.90
68385;DHT22;55336;43.062;25.626;2024-02-15T13:05:57;11.40;99.90
68385;DHT22;55336;43.062;25.626;2024-02-15T13:08:23;11.60;99.90
68385;DHT22;55336;43.062;25.626;2024-02-15T13:10:49;11.70;99.90
68385;DHT22;55336;43.062;25.626;2024-02-15T13:13:15;11.70;99.90
68385;DHT22;55336;43.062;25.626;2024-02-15T13:15:42;11.30;99.90
68385;DHT22;55336;43.062;25.626;2024-02-15T13:18:08;11.30;99.90
68385;DHT22;55336;43.062;25.626;2024-02-15T13:20:39;11.30;99.90
68385;DHT22;55336;43.062;25.626;2024-02-15T13:23:05;11.40;99.90
68385;DHT22;55336;43.062;25.626;2024-02-15T13:25:38;11.40;99.90
68385;DHT22;55336;43.062;25.626;2024-02-15T13:28:09;11.30;99.90
68385;DHT22;55336;43.062;25.626;2024-02-15T13:30:36;11.00;99.90
68385;DHT22;55336;43.062;25.626;2024-02-15T13:33:02;10.80;99.90
68385;DHT22;55336;43.062;25.626;2024-02-15T13:35:29;10.60;99.90
68385;DHT22;55336;43.062;25.626;2024-02-15T13:37:55;10.70;99.90
68385;DHT22;55336;43.062;25.626;2024-02-15T13:40:24;10.60;99.90
68385;DHT22;55336;43.062;25.626;2024-02-15T13:42:54;10.70;99.90
68385;DHT22;55336;43.062;25.626;2024-02-15T13:45:28;10.30;99.90
68385;DHT22;55336;43.062;25.626;2024-02-15T13:47:56;10.40;99.90
68385;DHT22;55336;43.062;25.626;2024-02-15T13:50:23;10.30;99.90
68385;DHT22;55336;43.062;25.626;2024-02-15T13:52:49;10.30;99.90
68385;DHT22;55336;43.062;25.626;2024-02-15T13:55:17;10.30;99.90
68385;DHT22;55336;43.062;25.626;2024-02-15T13:57:48;10.30;99.90
68385;DHT22;55336;43.062;25.626;2024-02-15T14:00:17;10.40;99.90
68385;DHT22;55336;43.062;25.626;2024-02-15T14:03:01;10.40;99.90
68385;DHT22;55336;43.062;25.626;2024-02-15T14:05:30;10.50;99.90
68385;DHT22;55336;43.062;25.626;2024-02-15T14:07:58;10.50;99.90
68385;DHT22;55336;43.062;25.626;2024-02-15T14:10:25;10.50;99.90
68385;DHT22;55336;43.062;25.626;2024-02-15T14:12:54;10.40;99.90
68385;DHT22;55336;43.062;25.626;2024-02-15T14:15:31;10.50;99.90
68385;DHT22;55336;43.062;25.626;2024-02-15T14:18:12;10.50;99.90
68385;DHT22;55336;43.062;25.626;2024-02-15T14:20:44;10.40;99.90
68385;DHT22;55336;43.062;25.626;2024-02-15T14:23:12;10.30;99.90
68385;DHT22;55336;43.062;25.626;2024-02-15T14:25:42;10.10;99.90
68385;DHT22;55336;43.062;25.626;2024-02-15T14:28:08;10.10;99.90
68385;DHT22;55336;43.062;25.626;2024-02-15T14:30:33;10.00;99.90
68385;DHT22;55336;43.062;25.626;2024-02-15T14:33:18;10.00;99.90
68385;DHT22;55336;43.062;25.626;2024-02-15T14:35:44;9.90;99.90
68385;DHT22;55336;43.062;25.626;2024-02-15T14:38:12;9.90;99.90
68385;DHT22;55336;43.062;25.626;2024-02-15T14:40:42;9.90;99.90
68385;DHT22;55336;43.062;25.626;2024-02-15T14:43:10;9.80;99.90
68385;DHT22;55336;43.062;25.626;2024-02-15T14:45:38;9.80;99.90
68385;DHT22;55336;43.062;25.626;2024-02-15T14:48:07;9.80;99.90
68385;DHT22;55336;43.062;25.626;2024-02-15T14:50:38;9.80;99.90
68385;DHT22;55336;43.062;25.626;2024-02-15T14:53:04;9.80;99.90
68385;DHT22;55336;43.062;25.626;2024-02-15T14:55:30;9.80;99.90
68385;DHT22;55336;43.062;25.626;2024-02-15T14:57:57;9.80;99.90
68385;DHT22;55336;43.062;25.626;2024-02-15T15:00:25;9.80;99.90
68385;DHT22;55336;43.062;25.626;2024-02-15T15:02:53;9.90;99.90
68385;DHT22;55336;43.062;25.626;2024-02-15T15:05:22;9.80;99.90
68385;DHT22;55336;43.062;25.626;2024-02-15T15:08:07;9.80;99.90
68385;DHT22;55336;43.062;25.626;2024-02-15T15:10:51;9.80;99.90
68385;DHT22;55336;43.062;25.626;2024-02-15T15:13:36;9.80;99.90
68385;DHT22;55336;43.062;25.626;2024-02-15T15:16:02;9.70;99.90
68385;DHT22;55336;43.062;25.626;2024-02-15T15:18:31;9.70;99.90
68385;DHT22;55336;43.062;25.626;2024-02-15T15:21:02;9.70;99.90
68385;DHT22;55336;43.062;25.626;2024-02-15T15:23:28;9.70;99.90
68385;DHT22;55336;43.062;25.626;2024-02-15T15:25:58;9.70;99.90
68385;DHT22;55336;43.062;25.626;2024-02-15T15:28:24;9.60;99.90
68385;DHT22;55336;43.062;25.626;2024-02-15T15:30:51;9.50;99.90
68385;DHT22;55336;43.062;25.626;2024-02-15T15:33:17;9.40;99.90
68385;DHT22;55336;43.062;25.626;2024-02-15T15:35:47;9.30;99.90
68385;DHT22;55336;43.062;25.626;2024-02-15T15:38:13;9.10;99.90
68385;DHT22;55336;43.062;25.626;2024-02-15T15:40:39;8.90;99.90
68385;DHT22;55336;43.062;25.626;2024-02-15T15:43:05;8.80;99.90